createdAt,value
2019-04-27T00:01:17.693Z,55.60
2019-04-27T00:03:57.069Z,55.70
2019-04-27T00:06:27.046Z,55.90
2019-04-27T00:09:00.529Z,55.70
2019-04-27T00:11:45.551Z,55.70
2019-04-27T00:14:18.027Z,55.80
2019-04-27T00:17:14.430Z,55.80
2019-04-27T00:19:49.821Z,56.00
2019-04-27T00:22:33.913Z,56.40
2019-04-27T00:25:03.616Z,56.60
2019-04-27T00:27:33.584Z,56.90
2019-04-27T00:30:03.948Z,57.00
2019-04-27T00:32:33.526Z,57.00
2019-04-27T00:35:03.684Z,57.00
2019-04-27T00:37:58.051Z,57.00
2019-04-27T00:40:34.730Z,57.00
2019-04-27T00:43:04.216Z,57.10
2019-04-27T00:45:33.751Z,57.30
2019-04-27T00:48:03.631Z,57.30
2019-04-27T00:50:33.792Z,57.30
2019-04-27T00:53:03.534Z,57.30
2019-04-27T00:55:35.327Z,57.30
2019-04-27T00:58:29.927Z,57.20
2019-04-27T01:01:14.784Z,57.30
2019-04-27T01:03:52.983Z,57.40
2019-04-27T01:06:23.856Z,57.50
2019-04-27T01:08:53.345Z,57.60
2019-04-27T01:11:24.874Z,57.80
2019-04-27T01:13:53.997Z,57.90
2019-04-27T01:16:24.141Z,57.90
2019-04-27T01:18:53.867Z,58.00
2019-04-27T01:21:23.439Z,58.10
2019-04-27T01:23:53.109Z,58.00
2019-04-27T01:26:32.014Z,58.10
2019-04-27T01:29:11.045Z,58.30
2019-04-27T01:31:40.362Z,58.30
2019-04-27T01:34:09.618Z,58.30
2019-04-27T01:36:39.298Z,58.30
2019-04-27T01:39:13.685Z,58.40
2019-04-27T01:41:42.986Z,58.40
2019-04-27T01:44:12.389Z,58.50
2019-04-27T01:46:41.715Z,58.60
2019-04-27T01:49:11.177Z,58.60
2019-04-27T01:51:40.458Z,58.90
2019-04-27T01:54:12.006Z,59.00
2019-04-27T01:56:41.409Z,59.00
2019-04-27T01:59:10.738Z,59.00
2019-04-27T02:01:58.771Z,59.00
2019-04-27T02:04:35.258Z,59.00
2019-04-27T02:07:06.290Z,58.90
2019-04-27T02:09:35.650Z,58.90
2019-04-27T02:12:05.144Z,58.90
2019-04-27T02:14:34.426Z,58.90
2019-04-27T02:17:03.814Z,58.80
2019-04-27T02:19:33.122Z,58.90
2019-04-27T02:22:02.499Z,59.00
2019-04-27T02:24:31.882Z,59.10
2019-04-27T02:27:01.186Z,59.00
2019-04-27T02:29:50.641Z,59.40
2019-04-27T02:32:39.696Z,59.00
2019-04-27T02:35:12.575Z,59.10
2019-04-27T02:37:41.830Z,59.10
2019-04-27T02:40:50.374Z,59.20
2019-04-27T02:43:22.265Z,59.30
2019-04-27T02:45:51.666Z,59.50
2019-04-27T02:48:20.952Z,59.50
2019-04-27T02:50:52.103Z,59.50
2019-04-27T02:53:40.443Z,59.60
2019-04-27T02:56:10.375Z,59.60
2019-04-27T02:58:40.628Z,59.60
2019-04-27T03:01:10.251Z,59.70
2019-04-27T03:03:41.195Z,59.80
2019-04-27T03:06:10.768Z,59.80
2019-04-27T03:08:42.707Z,59.80
2019-04-27T03:11:11.101Z,59.80
2019-04-27T03:14:15.132Z,59.80
2019-04-27T03:16:56.625Z,59.80
2019-04-27T03:19:39.882Z,59.70
2019-04-27T03:22:29.619Z,59.60
2019-04-27T03:25:20.236Z,59.70
2019-04-27T03:27:51.002Z,59.90
2019-04-27T03:30:22.993Z,59.90
2019-04-27T03:32:56.609Z,59.80
2019-04-27T03:35:23.190Z,60.30
2019-04-27T03:37:52.785Z,60.60
2019-04-27T03:40:22.109Z,60.80
2019-04-27T03:42:53.040Z,61.10
2019-04-27T03:45:22.463Z,61.30
2019-04-27T03:47:51.836Z,62.30
2019-04-27T03:50:26.720Z,61.60
2019-04-27T03:53:23.287Z,61.80
2019-04-27T03:55:54.661Z,62.00
2019-04-27T03:58:31.384Z,62.10
2019-04-27T04:01:00.816Z,62.30
2019-04-27T04:03:30.110Z,62.60
2019-04-27T04:06:00.336Z,62.70
2019-04-27T04:08:30.706Z,63.00
2019-04-27T04:11:06.803Z,63.20
2019-04-27T04:13:40.403Z,63.50
2019-04-27T04:16:25.708Z,63.80
2019-04-27T04:19:02.828Z,64.10
2019-04-27T04:21:32.101Z,64.40
2019-04-27T04:24:01.516Z,64.60
2019-04-27T04:26:32.981Z,64.80
2019-04-27T04:29:01.944Z,65.00
2019-04-27T04:31:33.221Z,65.20
2019-04-27T04:34:02.257Z,65.30
2019-04-27T04:36:31.518Z,65.30
2019-04-27T04:39:00.859Z,65.40
2019-04-27T04:41:45.704Z,65.50
2019-04-27T04:44:30.088Z,65.50
2019-04-27T04:47:05.396Z,65.50
2019-04-27T04:49:34.642Z,65.70
2019-04-27T04:52:04.029Z,65.80
2019-04-27T04:54:33.342Z,65.90
2019-04-27T04:57:02.635Z,66.00
2019-04-27T04:59:31.940Z,66.00
2019-04-27T05:02:02.385Z,66.20
2019-04-27T05:04:32.022Z,66.30
2019-04-27T05:07:01.327Z,66.30
2019-04-27T05:09:30.586Z,66.40
2019-04-27T05:11:59.854Z,66.60
2019-04-27T05:14:29.150Z,66.70
2019-04-27T05:16:59.168Z,66.60
2019-04-27T05:19:29.258Z,67.40
2019-04-27T05:21:59.299Z,66.60
2019-04-27T05:24:29.283Z,66.60
2019-04-27T05:26:59.136Z,66.60
2019-04-27T05:29:29.288Z,66.50
2019-04-27T05:31:59.245Z,66.40
2019-04-27T05:34:29.441Z,66.60
2019-04-27T05:36:59.325Z,66.60
2019-04-27T05:39:30.105Z,66.60
2019-04-27T05:41:59.898Z,66.60
2019-04-27T05:44:55.277Z,66.70
2019-04-27T05:47:50.196Z,66.80
2019-04-27T05:50:18.330Z,66.80
2019-04-27T05:52:47.217Z,66.90
2019-04-27T05:55:17.061Z,66.90
2019-04-27T05:57:46.317Z,66.90
2019-04-27T06:00:18.691Z,66.90
2019-04-27T06:02:48.755Z,66.70
2019-04-27T06:05:18.984Z,66.80
2019-04-27T06:07:48.860Z,66.70
2019-04-27T06:10:19.852Z,66.70
2019-04-27T06:12:49.169Z,66.80
2019-04-27T06:15:19.804Z,66.80
2019-04-27T06:17:49.262Z,66.90
2019-04-27T06:20:18.932Z,66.90
2019-04-27T06:22:48.940Z,66.80
2019-04-27T06:25:21.125Z,66.80
2019-04-27T06:27:49.643Z,66.90
2019-04-27T06:30:19.309Z,66.90
2019-04-27T06:32:49.454Z,66.90
2019-04-27T06:35:18.766Z,67.10
2019-04-27T06:37:49.241Z,67.10
2019-04-27T06:40:18.829Z,67.10
2019-04-27T06:42:48.668Z,67.30
2019-04-27T06:45:19.633Z,67.30
2019-04-27T06:47:51.052Z,67.30
2019-04-27T06:50:19.876Z,67.20
2019-04-27T06:52:49.245Z,67.30
2019-04-27T06:55:18.884Z,68.00
2019-04-27T06:57:49.079Z,67.00
2019-04-27T07:00:18.982Z,66.90
2019-04-27T07:02:49.243Z,66.70
2019-04-27T07:05:20.325Z,66.60
2019-04-27T07:07:49.803Z,66.60
2019-04-27T07:10:19.180Z,66.70
2019-04-27T07:12:49.047Z,66.60
2019-04-27T07:15:20.337Z,66.60
2019-04-27T07:17:49.487Z,66.80
2019-04-27T07:20:18.962Z,67.00
2019-04-27T07:22:49.626Z,67.20
2019-04-27T07:25:18.987Z,67.20
2019-04-27T07:27:49.401Z,67.10
2019-04-27T07:30:19.134Z,67.00
2019-04-27T07:32:48.908Z,67.00
2019-04-27T07:35:19.659Z,67.00
2019-04-27T07:37:49.222Z,67.00
2019-04-27T07:40:18.871Z,67.00
2019-04-27T07:42:51.054Z,67.10
2019-04-27T07:45:30.750Z,67.10
2019-04-27T07:48:00.151Z,67.10
2019-04-27T07:50:29.440Z,67.10
2019-04-27T07:52:58.824Z,67.20
2019-04-27T07:55:28.811Z,67.00
2019-04-27T07:57:59.712Z,66.90
2019-04-27T08:00:29.354Z,66.80
2019-04-27T08:02:58.731Z,66.50
2019-04-27T08:05:29.171Z,66.50
2019-04-27T08:08:00.188Z,66.50
2019-04-27T08:10:29.627Z,66.60
2019-04-27T08:12:59.712Z,66.60
2019-04-27T08:15:29.239Z,66.50
2019-04-27T08:17:59.271Z,66.60
2019-04-27T08:20:29.400Z,66.70
2019-04-27T08:22:59.877Z,66.70
2019-04-27T08:25:30.769Z,66.60
2019-04-27T08:28:19.249Z,66.70
2019-04-27T08:31:01.745Z,66.50
2019-04-27T08:33:31.145Z,66.50
2019-04-27T08:36:00.445Z,66.70
2019-04-27T08:38:29.793Z,66.60
2019-04-27T08:40:59.338Z,66.60
2019-04-27T08:43:29.010Z,66.70
2019-04-27T08:46:00.253Z,66.80
2019-04-27T08:48:35.963Z,66.90
2019-04-27T08:51:00.449Z,66.90
2019-04-27T08:53:29.938Z,67.70
2019-04-27T08:55:59.370Z,66.80
2019-04-27T08:58:28.774Z,66.80
2019-04-27T09:00:59.019Z,66.90
2019-04-27T09:03:29.446Z,66.90
2019-04-27T09:05:59.128Z,66.80
2019-04-27T09:08:39.023Z,66.80
2019-04-27T09:11:39.805Z,66.80
2019-04-27T09:14:30.949Z,66.70
2019-04-27T09:17:09.476Z,66.60
2019-04-27T09:19:49.132Z,66.70
2019-04-27T09:22:20.538Z,66.60
2019-04-27T09:24:49.507Z,66.60
2019-04-27T09:27:19.883Z,66.60
2019-04-27T09:29:49.969Z,66.70
2019-04-27T09:32:19.464Z,66.60
2019-04-27T09:34:48.746Z,66.60
2019-04-27T09:37:18.124Z,66.80
2019-04-27T09:39:47.394Z,66.80
2019-04-27T09:42:16.831Z,66.80
2019-04-27T09:44:47.578Z,66.80
2019-04-27T09:47:17.098Z,66.70
2019-04-27T09:49:46.424Z,66.70
2019-04-27T09:52:24.363Z,66.90
2019-04-27T09:54:48.158Z,67.00
2019-04-27T09:57:17.648Z,67.20
2019-04-27T09:59:46.920Z,67.50
2019-04-27T10:02:16.570Z,67.70
2019-04-27T10:04:46.255Z,68.00
2019-04-27T10:07:16.514Z,68.20
2019-04-27T10:09:47.328Z,68.20
2019-04-27T10:12:16.874Z,68.10
2019-04-27T10:14:47.708Z,68.00
2019-04-27T10:17:17.194Z,68.00
2019-04-27T10:19:46.555Z,68.00
2019-04-27T10:22:16.035Z,68.00
2019-04-27T10:24:45.460Z,68.20
2019-04-27T10:27:16.155Z,68.20
2019-04-27T10:29:46.769Z,68.20
2019-04-27T10:32:16.323Z,68.20
2019-04-27T10:34:46.204Z,68.20
2019-04-27T10:37:16.085Z,68.20
2019-04-27T10:39:45.949Z,68.40
2019-04-27T10:42:15.389Z,68.60
2019-04-27T10:44:46.150Z,68.60
2019-04-27T10:47:16.059Z,68.70
2019-04-27T10:49:46.594Z,68.80
2019-04-27T10:52:16.286Z,69.00
2019-04-27T10:54:45.588Z,69.70
2019-04-27T10:57:15.837Z,68.80
2019-04-27T10:59:46.141Z,68.80
2019-04-27T11:02:15.653Z,68.80
2019-04-27T11:04:56.461Z,68.50
2019-04-27T11:07:28.895Z,68.50
2019-04-27T11:09:58.288Z,68.20
2019-04-27T11:12:27.735Z,68.00
2019-04-27T11:14:57.111Z,67.80
2019-04-27T11:17:26.792Z,67.70
2019-04-27T11:19:56.196Z,67.20
2019-04-27T11:22:26.048Z,66.90
2019-04-27T11:24:56.384Z,66.70
2019-04-27T11:27:25.902Z,66.50
2019-04-27T11:29:56.408Z,65.90
2019-04-27T11:32:25.911Z,65.50
2019-04-27T11:35:20.158Z,65.20
2019-04-27T11:37:50.158Z,65.00
2019-04-27T11:40:21.362Z,64.70
2019-04-27T11:42:50.638Z,64.50
2019-04-27T11:45:20.179Z,64.40
2019-04-27T11:47:49.444Z,64.20
2019-04-27T11:50:19.097Z,64.00
2019-04-27T11:52:48.382Z,63.90
2019-04-27T11:55:17.930Z,63.80
2019-04-27T11:57:47.257Z,63.70
2019-04-27T12:00:18.574Z,63.70
2019-04-27T12:02:47.974Z,63.60
2019-04-27T12:05:17.389Z,63.60
2019-04-27T12:07:47.824Z,63.60
2019-04-27T12:10:18.357Z,63.60
2019-04-27T12:12:47.613Z,63.60
2019-04-27T12:15:18.157Z,63.50
2019-04-27T12:17:47.429Z,64.00
2019-04-27T12:20:17.951Z,63.60
2019-04-27T12:22:47.422Z,63.80
2019-04-27T12:25:17.033Z,63.80
2019-04-27T12:28:20.437Z,63.80
2019-04-27T12:30:56.073Z,63.90
2019-04-27T12:33:25.679Z,64.10
2019-04-27T12:35:56.884Z,64.50
2019-04-27T12:38:26.377Z,64.90
2019-04-27T12:40:57.497Z,65.10
2019-04-27T12:43:26.819Z,65.50
2019-04-27T12:45:56.123Z,65.70
2019-04-27T12:48:25.488Z,66.00
2019-04-27T12:50:56.331Z,66.20
2019-04-27T12:53:48.286Z,66.50
2019-04-27T12:56:27.461Z,66.60
2019-04-27T12:59:10.184Z,66.70
2019-04-27T13:01:39.913Z,66.80
2019-04-27T13:04:09.268Z,66.90
2019-04-27T13:06:38.536Z,67.00
2019-04-27T13:09:08.024Z,67.00
2019-04-27T13:11:37.316Z,66.90
2019-04-27T13:14:06.693Z,66.90
2019-04-27T13:16:35.989Z,66.80
2019-04-27T13:19:06.145Z,67.00
2019-04-27T13:21:36.556Z,67.00
2019-04-27T13:24:06.974Z,67.00
2019-04-27T13:26:38.004Z,67.10
2019-04-27T13:29:07.649Z,67.00
2019-04-27T13:31:37.000Z,67.10
2019-04-27T13:34:06.293Z,67.00
2019-04-27T13:36:36.765Z,67.00
2019-04-27T13:39:07.257Z,67.10
2019-04-27T13:41:36.564Z,67.10
2019-04-27T13:44:06.575Z,67.00
2019-04-27T13:46:53.585Z,66.80
2019-04-27T13:49:34.325Z,66.80
2019-04-27T13:52:23.118Z,66.70
2019-04-27T13:54:52.408Z,66.70
2019-04-27T13:57:21.721Z,66.60
2019-04-27T13:59:51.654Z,66.60
2019-04-27T14:02:23.596Z,66.60
2019-04-27T14:04:52.284Z,66.80
2019-04-27T14:07:21.692Z,66.80
2019-04-27T14:09:50.992Z,66.90
2019-04-27T14:12:21.642Z,67.00
2019-04-27T14:14:51.190Z,67.00
2019-04-27T14:17:20.582Z,67.10
2019-04-27T14:19:49.979Z,67.00
2019-04-27T14:22:19.396Z,67.00
2019-04-27T14:24:48.902Z,67.10
2019-04-27T14:27:19.666Z,67.20
2019-04-27T14:29:49.105Z,67.30
2019-04-27T14:32:18.882Z,67.40
2019-04-27T14:34:50.118Z,67.30
2019-04-27T14:37:19.326Z,67.30
2019-04-27T14:39:48.844Z,67.30
2019-04-27T14:42:19.131Z,67.40
2019-04-27T14:44:49.049Z,67.30
2019-04-27T14:47:18.865Z,67.30
2019-04-27T14:49:49.080Z,67.40
2019-04-27T14:52:18.879Z,67.40
2019-04-27T14:54:50.689Z,67.60
2019-04-27T14:57:20.410Z,68.50
2019-04-27T14:59:50.011Z,67.60
2019-04-27T15:02:19.380Z,67.60
2019-04-27T15:04:48.724Z,67.70
2019-04-27T15:07:18.139Z,67.80
2019-04-27T15:09:49.656Z,67.80
2019-04-27T15:12:18.387Z,67.80
2019-04-27T15:14:47.827Z,68.00
2019-04-27T15:17:17.446Z,67.90
2019-04-27T15:19:53.984Z,67.90
2019-04-27T15:22:27.559Z,67.90
2019-04-27T15:25:09.188Z,68.00
2019-04-27T15:27:37.476Z,68.10
2019-04-27T15:30:10.777Z,68.10
2019-04-27T15:33:02.328Z,68.20
2019-04-27T15:35:43.949Z,68.20
2019-04-27T15:38:16.541Z,68.10
2019-04-27T15:41:16.929Z,68.30
2019-04-27T15:43:48.661Z,68.20
2019-04-27T15:46:18.540Z,67.90
2019-04-27T15:48:48.730Z,67.80
2019-04-27T15:51:21.000Z,67.70
2019-04-27T15:53:50.856Z,67.80
2019-04-27T15:56:21.720Z,67.60
2019-04-27T15:58:51.134Z,67.50
2019-04-27T16:01:20.506Z,67.40
2019-04-27T16:03:52.074Z,68.20
2019-04-27T16:06:20.934Z,67.40
2019-04-27T16:08:50.234Z,67.40
2019-04-27T16:11:19.898Z,67.40
2019-04-27T16:13:49.286Z,67.30
2019-04-27T16:16:19.054Z,67.20
2019-04-27T16:18:49.136Z,67.10
2019-04-27T16:21:20.081Z,67.10
2019-04-27T16:23:49.476Z,67.00
2019-04-27T16:26:20.074Z,66.80
2019-04-27T16:28:53.071Z,66.70
2019-04-27T16:31:20.649Z,66.70
2019-04-27T16:33:54.003Z,66.80
2019-04-27T16:36:22.553Z,66.70
2019-04-27T16:39:03.562Z,66.80
2019-04-27T16:41:32.959Z,66.80
2019-04-27T16:44:02.288Z,66.70
2019-04-27T16:46:34.952Z,66.70
2019-04-27T16:49:07.454Z,66.70
2019-04-27T16:51:36.913Z,66.70
2019-04-27T16:54:05.771Z,66.80
2019-04-27T16:56:35.060Z,66.90
2019-04-27T16:59:25.962Z,66.90
2019-04-27T17:01:41.785Z,66.80
2019-04-27T17:04:11.213Z,66.90
2019-04-27T17:06:40.766Z,66.80
2019-04-27T17:09:11.353Z,66.80
2019-04-27T17:11:43.974Z,66.90
2019-04-27T17:14:28.991Z,66.80
2019-04-27T17:17:25.657Z,66.80
2019-04-27T17:19:58.669Z,66.90
2019-04-27T17:22:28.655Z,66.80
2019-04-27T17:24:58.155Z,66.80
2019-04-27T17:27:37.773Z,66.90
2019-04-27T17:30:08.980Z,66.80
2019-04-27T17:32:45.357Z,66.80
2019-04-27T17:35:15.143Z,66.90
2019-04-27T17:37:44.661Z,66.90
2019-04-27T17:40:15.557Z,66.90
2019-04-27T17:42:44.997Z,67.00
2019-04-27T17:45:14.493Z,67.10
2019-04-27T17:47:43.929Z,68.20
2019-04-27T17:50:13.672Z,67.50
2019-04-27T17:52:43.085Z,67.60
2019-04-27T17:55:12.541Z,67.70
2019-04-27T17:57:41.812Z,67.80
2019-04-27T18:00:11.973Z,67.80
2019-04-27T18:02:42.493Z,67.80
2019-04-27T18:05:13.692Z,67.80
2019-04-27T18:07:44.348Z,67.80
2019-04-27T18:10:22.712Z,67.90
2019-04-27T18:12:48.581Z,68.00
2019-04-27T18:15:16.155Z,67.90
2019-04-27T18:17:50.020Z,68.10
2019-04-27T18:20:20.868Z,68.20
2019-04-27T18:22:54.464Z,68.40
2019-04-27T18:25:23.848Z,68.50
2019-04-27T18:28:00.564Z,68.60
2019-04-27T18:30:40.535Z,68.70
2019-04-27T18:33:08.812Z,68.70
2019-04-27T18:35:38.726Z,68.70
2019-04-27T18:38:08.072Z,68.80
2019-04-27T18:40:38.180Z,68.60
2019-04-27T18:43:12.156Z,68.70
2019-04-27T18:45:44.750Z,68.50
2019-04-27T18:48:16.024Z,68.70
2019-04-27T18:50:52.192Z,68.70
2019-04-27T18:53:24.729Z,68.70
2019-04-27T18:55:59.306Z,68.70
2019-04-27T18:58:25.143Z,68.70
2019-04-27T19:00:54.492Z,68.60
2019-04-27T19:03:23.852Z,68.50
2019-04-27T19:05:53.239Z,68.60
2019-04-27T19:08:22.566Z,68.50
2019-04-27T19:10:51.902Z,69.10
2019-04-27T19:13:21.201Z,68.50
2019-04-27T19:15:50.689Z,68.60
2019-04-27T19:18:20.094Z,68.60
2019-04-27T19:20:49.397Z,68.60
2019-04-27T19:23:18.780Z,68.50
2019-04-27T19:26:04.697Z,68.60
2019-04-27T19:29:03.136Z,68.70
2019-04-27T19:31:35.432Z,68.70
2019-04-27T19:34:04.759Z,68.80
2019-04-27T19:36:33.998Z,68.70
2019-04-27T19:39:04.715Z,68.50
2019-04-27T19:41:34.106Z,68.60
2019-04-27T19:44:03.346Z,68.60
2019-04-27T19:46:32.748Z,68.70
2019-04-27T19:49:02.064Z,68.60
2019-04-27T19:51:31.395Z,69.50
2019-04-27T19:54:00.684Z,68.70
2019-04-27T19:56:30.220Z,68.70
2019-04-27T19:59:02.032Z,68.70
2019-04-27T20:01:40.090Z,68.70
2019-04-27T20:04:15.884Z,68.70
2019-04-27T20:06:45.426Z,68.80
2019-04-27T20:09:19.720Z,68.70
2019-04-27T20:11:49.051Z,68.80
2019-04-27T20:14:18.355Z,68.80
2019-04-27T20:16:47.736Z,69.00
2019-04-27T20:19:17.071Z,69.00
2019-04-27T20:21:46.463Z,69.10
2019-04-27T20:24:15.759Z,69.10
2019-04-27T20:26:45.131Z,69.00
2019-04-27T20:29:14.380Z,69.00
2019-04-27T20:31:43.775Z,69.00
2019-04-27T20:34:13.100Z,69.10
2019-04-27T20:36:42.347Z,69.00
2019-04-27T20:39:12.032Z,69.00
2019-04-27T20:41:41.319Z,68.90
2019-04-27T20:44:12.540Z,68.90
2019-04-27T20:46:41.605Z,69.50
2019-04-27T20:49:19.210Z,68.90
2019-04-27T20:51:55.451Z,68.90
2019-04-27T20:54:24.755Z,69.10
2019-04-27T20:56:56.929Z,69.20
2019-04-27T20:59:25.027Z,69.30
2019-04-27T21:01:54.351Z,69.60
2019-04-27T21:04:27.231Z,69.60
2019-04-27T21:07:01.177Z,69.80
2019-04-27T21:09:32.257Z,70.00
2019-04-27T21:12:01.675Z,70.00
2019-04-27T21:14:31.651Z,70.00
2019-04-27T21:17:01.768Z,70.00
2019-04-27T21:19:31.328Z,70.10
2019-04-27T21:22:01.276Z,70.20
2019-04-27T21:24:31.146Z,70.30
2019-04-27T21:27:01.344Z,70.30
2019-04-27T21:29:31.151Z,70.30
2019-04-27T21:32:01.085Z,70.40
2019-04-27T21:34:31.106Z,70.60
2019-04-27T21:37:01.077Z,70.40
2019-04-27T21:39:31.873Z,70.40
2019-04-27T21:42:01.266Z,70.40
2019-04-27T21:44:31.969Z,70.50
2019-04-27T21:47:01.514Z,70.50
2019-04-27T21:49:31.443Z,70.50
2019-04-27T21:52:25.538Z,70.50
2019-04-27T21:54:55.477Z,70.50
2019-04-27T21:57:24.752Z,70.50
2019-04-27T21:59:54.058Z,70.50
2019-04-27T22:02:23.406Z,70.50
2019-04-27T22:04:52.690Z,70.50
2019-04-27T22:07:22.010Z,70.50
2019-04-27T22:09:51.719Z,70.40
2019-04-27T22:12:21.364Z,70.40
2019-04-27T22:14:50.864Z,70.40
2019-04-27T22:17:21.627Z,70.40
2019-04-27T22:19:51.473Z,70.30
2019-04-27T22:22:27.717Z,70.30
2019-04-27T22:25:05.861Z,70.30
2019-04-27T22:27:35.201Z,70.40
2019-04-27T22:30:05.181Z,70.20
2019-04-27T22:32:34.465Z,70.20
2019-04-27T22:35:03.741Z,70.20
2019-04-27T22:37:33.049Z,70.20
2019-04-27T22:40:24.404Z,70.30
2019-04-27T22:43:07.214Z,70.30
2019-04-27T22:45:37.073Z,70.30
2019-04-27T22:48:06.341Z,70.10
2019-04-27T22:50:35.609Z,69.90
2019-04-27T22:53:04.970Z,69.80
2019-04-27T22:55:35.965Z,69.60
2019-04-27T22:58:12.513Z,69.40
2019-04-27T23:00:52.901Z,69.30
2019-04-27T23:03:28.757Z,69.10
2019-04-27T23:05:58.017Z,69.00
2019-04-27T23:08:27.340Z,68.80
2019-04-27T23:10:56.733Z,68.80
2019-04-27T23:13:26.008Z,68.80
2019-04-27T23:15:57.437Z,68.70
2019-04-27T23:18:26.752Z,68.60
2019-04-27T23:20:56.008Z,68.50
2019-04-27T23:23:25.364Z,68.40
2019-04-27T23:25:54.668Z,68.30
2019-04-27T23:28:23.968Z,68.10
2019-04-27T23:31:12.256Z,68.00
2019-04-27T23:33:43.915Z,67.80
2019-04-27T23:36:13.180Z,67.70
2019-04-27T23:38:42.457Z,67.60
2019-04-27T23:41:11.775Z,67.60
2019-04-27T23:43:41.092Z,67.50
2019-04-27T23:46:11.576Z,67.40
2019-04-27T23:48:42.002Z,67.30
2019-04-27T23:51:22.764Z,67.20
2019-04-27T23:53:52.108Z,67.20
2019-04-27T23:56:22.587Z,67.10
2019-04-27T23:58:51.912Z,67.00
